Lewisburg, WV

7:28 AM EDT on May 25, 2018 (GMT -0400)
Greenbrier Valley

Weather History for KLWB - March, 2014

Change the Weather History Date:

Friday, March 7, 2014

  Actual Average Record
Temperature  
Mean Temperature 37 °F -  
Max Temperature 46 °F 51 °F 75 °F (2009)
Min Temperature 28 °F 28 °F 13 °F (2015)
Degree Days  
Heating Degree Days 28    
Month to date heating degree days 246  
Moisture  
Dew Point 29 °F    
Average Humidity 76    
Maximum Humidity 92    
Minimum Humidity 60    
Precipitation  
Precipitation 0.00 in - - ()
Month to date precipitation 1.02  
Year to date precipitation 3.85  
Snow  
Snow 0.00 in - - ()
Month to date snowfall 4.5  
Snow Depth 0.00 in    
Sea Level Pressure  
Sea Level Pressure 30.02 in    
Wind  
Wind Speed 4 mph (NE)    
Max Wind Speed 9 mph    
Max Gust Speed -    
Visibility 9 miles    
Events      
Averages and records for this station are not official NWS values.
T = Trace of Precipitation, MM = Missing Value Source: NWS Daily Summary

Daily Weather History Graph

Daily Weather History Graph

Search for Another Location

Airport or City:

Astronomy

Mar. 07, 2014 Rise Set
Actual Time 6:44 AM EST 6:21 PM EST
Civil Twilight 6:18 AM EST 6:47 PM EST
Nautical Twilight 5:48 AM EST 7:17 PM EST
Astronomical Twilight 5:17 AM EST 7:48 PM EST
Moon 10:42 AM EST (3/7) 12:18 AM EST (3/7)
Length of Visible Light 12h 28m
Length of Day
11h 36m
Waxing Crescent, 42% of the Moon is Illuminated
Mar 7
Waxing Crescent
Mar 8
First Quarter
Mar 16
Full
Mar 23
Last Quarter
Mar 30
New

Hourly Weather History & Observations

Time (EST) Temp. Windchill Dew Point Humidity Pressure Visibility Wind Dir Wind Speed Gust Speed Precip Events Conditions
12:15 AM 29.3 °F 24.3 °F 20.3 °F 69% 30.14 in 10.0 mi NNE 4.6 mph - N/A   Overcast
12:35 AM 29.7 °F 24.7 °F 20.8 °F 70% 30.13 in 10.0 mi NE 4.6 mph - N/A   Overcast
12:55 AM 28.9 °F 21.9 °F 21.7 °F 74% 30.13 in 10.0 mi NE 6.9 mph - N/A   Overcast
1:15 AM 28.9 °F 21.9 °F 22.1 °F 76% 30.12 in 10.0 mi NE 6.9 mph - N/A   Overcast
1:35 AM 28.4 °F 21.2 °F 23.0 °F 80% 30.12 in 10.0 mi NE 6.9 mph - N/A   Overcast
1:55 AM 28.4 °F 19.7 °F 23.9 °F 83% 30.11 in 10.0 mi NE 9.2 mph - N/A   Overcast
2:10 AM 28.4 °F 21.2 °F 24.1 °F 84% 30.11 in 7.0 mi NE 6.9 mph - N/A   Overcast
2:35 AM 28.4 °F 19.7 °F 24.3 °F 84% 30.10 in 7.0 mi NE 9.2 mph - N/A   Overcast
2:55 AM 28.0 °F 19.3 °F 23.9 °F 84% 30.09 in 4.0 mi NE 9.2 mph - N/A   Overcast
3:15 AM 28.0 °F 19.3 °F 24.6 °F 87% 30.07 in 3.0 mi NE 9.2 mph - N/A   Overcast
3:35 AM 27.9 °F 20.6 °F 24.6 °F 88% 30.07 in 4.0 mi NE 6.9 mph - N/A   Overcast
3:55 AM 27.5 °F 19.3 °F 24.8 °F 90% 30.07 in 3.0 mi NE 8.1 mph - N/A   Overcast
4:15 AM 27.5 °F 18.6 °F 25.3 °F 92% 30.08 in 2.5 mi ENE 9.2 mph - N/A   Overcast
4:35 AM 27.5 °F 19.3 °F 25.7 °F 93% 30.09 in 2.5 mi NE 8.1 mph - N/A   Overcast
4:55 AM 27.5 °F 18.6 °F 25.7 °F 93% 30.08 in 4.0 mi NE 9.2 mph - N/A   Overcast
5:15 AM 27.5 °F 19.3 °F 25.7 °F 93% 30.08 in 5.0 mi NE 8.1 mph - N/A   Overcast
5:35 AM 28.0 °F 20.8 °F 25.7 °F 91% 30.08 in 10.0 mi NE 6.9 mph - N/A   Overcast
5:55 AM 28.2 °F 21.0 °F 25.7 °F 90% 30.07 in 10.0 mi NE 6.9 mph - N/A   Overcast
6:15 AM 28.4 °F 20.4 °F 25.9 °F 90% 30.06 in 10.0 mi NE 8.1 mph - N/A   Overcast
6:35 AM 28.4 °F 21.2 °F 26.1 °F 91% 30.06 in 10.0 mi NE 6.9 mph - N/A   Overcast
6:55 AM 28.9 °F 21.9 °F 26.2 °F 90% 30.06 in 10.0 mi NE 6.9 mph - N/A   Overcast
7:15 AM 29.3 °F 22.3 °F 26.4 °F 89% 30.06 in 10.0 mi NE 6.9 mph - N/A   Overcast
7:35 AM 29.7 °F 23.7 °F 26.6 °F 88% 30.07 in 10.0 mi ENE 5.8 mph - N/A   Overcast
7:55 AM 30.2 °F 25.4 °F 27.1 °F 88% 30.06 in 10.0 mi NE 4.6 mph - N/A   Overcast
8:15 AM 30.7 °F 26.0 °F 27.5 °F 88% 30.07 in 10.0 mi NE 4.6 mph - N/A   Overcast
8:35 AM 31.3 °F 26.6 °F 27.5 °F 86% 30.06 in 10.0 mi NE 4.6 mph - N/A   Overcast
8:55 AM 32.0 °F 25.6 °F 27.9 °F 85% 30.06 in 10.0 mi ENE 6.9 mph - N/A   Overcast
9:15 AM 32.7 °F 27.3 °F 28.0 °F 83% 30.06 in 10.0 mi ENE 5.8 mph - N/A   Overcast
9:35 AM 33.3 °F 30.2 °F 27.9 °F 81% 30.07 in 10.0 mi NE 3.5 mph - N/A   Overcast
9:55 AM 33.6 °F 28.4 °F 28.4 °F 81% 30.07 in 10.0 mi ENE 5.8 mph - N/A   Overcast
10:15 AM 34.3 °F 29.2 °F 28.4 °F 79% 30.07 in 10.0 mi NE 5.8 mph - N/A   Overcast
10:35 AM 34.3 °F 28.4 °F 28.8 °F 80% 30.07 in 10.0 mi NE 6.9 mph - N/A   Overcast
10:55 AM 35.2 °F 30.3 °F 29.1 °F 78% 30.06 in 10.0 mi ENE 5.8 mph - N/A   Overcast
11:15 AM 35.2 °F 29.5 °F 29.3 °F 79% 30.05 in 10.0 mi NE 6.9 mph - N/A   Overcast
11:35 AM 35.6 °F 32.8 °F 29.8 °F 80% 30.05 in 10.0 mi NE 3.5 mph - N/A   Overcast
11:55 AM 38.1 °F 33.7 °F 30.2 °F 73% 30.04 in 10.0 mi ENE 5.8 mph - N/A   Overcast
12:15 PM 37.8 °F 33.3 °F 30.2 °F 74% 30.03 in 10.0 mi NE 5.8 mph - N/A   Overcast
12:35 PM 38.7 °F 34.3 °F 30.7 °F 73% 30.03 in 10.0 mi East 5.8 mph - N/A   Overcast
12:55 PM 39.6 °F 36.3 °F 31.1 °F 72% 30.01 in 10.0 mi East 4.6 mph - N/A   Overcast
1:10 PM 41.0 °F - 31.3 °F 68% 30.00 in 10.0 mi Calm Calm - N/A   Overcast
1:35 PM 42.1 °F - 31.8 °F 67% 29.99 in 10.0 mi Calm Calm - N/A   Overcast
1:55 PM 43.2 °F - 32.0 °F 65% 29.98 in 10.0 mi Calm Calm - N/A   Overcast
2:15 PM 42.3 °F - 31.8 °F 67% 29.98 in 10.0 mi Calm Calm - N/A   Mostly Cloudy
2:35 PM 42.8 °F - 31.8 °F 65% 29.97 in 10.0 mi Calm Calm - N/A   Scattered Clouds
2:55 PM 43.5 °F - 32.0 °F 64% 29.97 in 10.0 mi Calm Calm - N/A   Scattered Clouds
3:15 PM 44.1 °F 42.5 °F 32.2 °F 63% 29.96 in 10.0 mi WNW 3.5 mph - N/A   Scattered Clouds
3:35 PM 44.2 °F 42.7 °F 32.2 °F 63% 29.96 in 10.0 mi South 3.5 mph - N/A   Clear
3:55 PM 44.6 °F 42.2 °F 32.2 °F 62% 29.95 in 10.0 mi WSW 4.6 mph - N/A   Clear
4:15 PM 44.8 °F 43.3 °F 32.2 °F 61% 29.94 in 10.0 mi WSW 3.5 mph - N/A   Clear
4:35 PM 45.1 °F - 32.4 °F 61% 29.94 in 10.0 mi Calm Calm - N/A   Clear
4:55 PM 45.1 °F - 32.4 °F 61% 29.93 in 10.0 mi Calm Calm - N/A   Clear
5:15 PM 45.5 °F 44.2 °F 32.7 °F 61% 29.93 in 10.0 mi SW 3.5 mph - N/A   Clear
5:35 PM 45.1 °F - 32.4 °F 61% 29.93 in 10.0 mi Calm Calm - N/A   Clear
6:00 PM 44.2 °F - 32.4 °F 63% 29.93 in 10.0 mi Calm Calm - N/A   Clear
6:15 PM 43.3 °F - 32.2 °F 65% 29.93 in 10.0 mi Calm Calm - N/A   Clear
6:35 PM 42.6 °F - 32.2 °F 67% 29.93 in 10.0 mi Calm Calm - N/A   Clear
6:55 PM 42.1 °F - 32.0 °F 67% 29.93 in 10.0 mi Calm Calm - N/A   Clear
7:15 PM 40.6 °F - 32.0 °F 71% 29.94 in 10.0 mi Calm Calm - N/A   Clear
7:35 PM 39.0 °F - 32.0 °F 76% 29.94 in 10.0 mi Calm Calm - N/A   Clear
7:55 PM 38.8 °F - 31.8 °F 76% 29.95 in 10.0 mi Calm Calm - N/A   Clear
8:15 PM 36.1 °F - 30.9 °F 81% 29.95 in 10.0 mi Calm Calm - N/A   Clear
8:35 PM 34.3 °F - 30.0 °F 84% 29.95 in 10.0 mi Calm Calm - N/A   Clear
8:55 PM 35.2 °F - 31.3 °F 85% 29.96 in 10.0 mi Calm Calm - N/A   Clear
9:15 PM 34.7 °F - 30.7 °F 85% 29.96 in 10.0 mi Calm Calm - N/A   Clear
9:35 PM 35.1 °F - 30.7 °F 84% 29.96 in 10.0 mi Calm Calm - N/A   Clear
9:55 PM 32.5 °F - 29.5 °F 88% 29.96 in 10.0 mi Calm Calm - N/A   Clear
10:15 PM 32.4 °F - 29.8 °F 90% 29.96 in 10.0 mi Calm Calm - N/A   Clear
10:30 PM 32.5 °F - 30.4 °F 92% 29.96 in 10.0 mi Calm Calm - N/A   Clear
10:55 PM 32.7 °F - 30.4 °F 91% 29.95 in 10.0 mi Calm Calm - N/A   Clear
11:15 PM 33.8 °F - 31.1 °F 90% 29.95 in 10.0 mi Calm Calm - N/A   Clear
11:35 PM 32.0 °F - 30.0 °F 92% 29.95 in 10.0 mi Calm Calm - N/A   Clear
11:55 PM 31.8 °F - 30.0 °F 93% 29.96 in 10.0 mi Calm Calm - N/A   Clear